createdAt,value
2019-03-30T00:01:01.905Z,58.43
2019-03-30T00:03:54.385Z,56.43
2019-03-30T00:06:47.834Z,57.77
2019-03-30T00:09:40.552Z,55.80
2019-03-30T00:12:33.005Z,55.87
2019-03-30T00:15:25.563Z,56.97
2019-03-30T00:18:17.860Z,59.37
2019-03-30T00:21:10.304Z,57.80
2019-03-30T00:24:03.496Z,57.70
2019-03-30T00:26:56.383Z,57.00
2019-03-30T00:29:49.648Z,58.27
2019-03-30T00:32:42.492Z,54.80
2019-03-30T00:35:34.997Z,55.87
2019-03-30T00:38:27.472Z,57.63
2019-03-30T00:41:19.572Z,55.70
2019-03-30T00:44:11.736Z,54.67
2019-03-30T00:47:03.907Z,58.83
2019-03-30T00:49:56.080Z,55.43
2019-03-30T00:52:48.369Z,53.50
2019-03-30T00:55:40.828Z,55.03
2019-03-30T00:58:33.193Z,50.97
2019-03-30T01:01:25.345Z,58.33
2019-03-30T01:04:17.774Z,54.07
2019-03-30T01:07:10.236Z,55.33
2019-03-30T01:10:02.711Z,56.13
2019-03-30T01:12:55.803Z,56.00
2019-03-30T01:15:48.100Z,54.13
2019-03-30T01:18:40.774Z,55.70
2019-03-30T01:21:34.155Z,57.53
2019-03-30T01:24:26.523Z,57.73
2019-03-30T01:27:19.296Z,57.00
2019-03-30T01:30:22.563Z,57.30
2019-03-30T01:33:06.229Z,56.60
2019-03-30T01:35:58.755Z,59.03
2019-03-30T01:38:51.372Z,62.00
2019-03-30T01:41:44.468Z,56.60
2019-03-30T01:44:36.873Z,62.77
2019-03-30T01:47:29.712Z,59.67
2019-03-30T01:50:22.723Z,57.07
2019-03-30T01:53:14.990Z,56.50
2019-03-30T01:56:07.492Z,55.30
2019-03-30T01:59:00.292Z,54.07
2019-03-30T02:01:53.452Z,56.43
2019-03-30T02:04:45.968Z,57.77
2019-03-30T02:07:38.990Z,54.53
2019-03-30T02:10:50.398Z,52.83
2019-03-30T02:13:42.869Z,49.03
2019-03-30T02:16:35.241Z,40.67
2019-03-30T02:19:27.646Z,44.10
2019-03-30T02:22:19.879Z,36.97
2019-03-30T02:25:13.424Z,39.00
2019-03-30T02:28:07.149Z,46.70
2019-03-30T02:30:59.999Z,41.03
2019-03-30T02:33:52.443Z,40.57
2019-03-30T02:36:44.560Z,42.47
2019-03-30T02:39:36.728Z,41.17
2019-03-30T02:42:28.999Z,40.17
2019-03-30T02:45:21.229Z,42.57
2019-03-30T02:48:13.635Z,44.07
2019-03-30T02:51:06.134Z,44.00
2019-03-30T02:53:58.581Z,44.47
2019-03-30T02:56:52.527Z,49.13
2019-03-30T02:59:44.745Z,46.90
2019-03-30T03:02:37.143Z,46.20
2019-03-30T03:05:29.591Z,45.93
2019-03-30T03:08:21.661Z,46.77
2019-03-30T03:11:13.922Z,45.17
2019-03-30T03:14:06.372Z,47.30
2019-03-30T03:16:58.767Z,44.63
2019-03-30T03:19:50.970Z,46.00
2019-03-30T03:22:43.068Z,44.57
2019-03-30T03:25:35.391Z,44.93
2019-03-30T03:28:27.538Z,46.80
2019-03-30T03:31:19.779Z,51.67
2019-03-30T03:34:12.284Z,49.03
2019-03-30T03:37:04.808Z,52.03
2019-03-30T03:39:56.995Z,50.13
2019-03-30T03:42:49.507Z,47.87
2019-03-30T03:45:41.648Z,45.87
2019-03-30T03:48:34.481Z,42.27
2019-03-30T03:51:26.903Z,43.53
2019-03-30T03:54:20.008Z,44.27
2019-03-30T03:57:14.558Z,43.30
2019-03-30T04:00:09.451Z,47.27
2019-03-30T04:03:04.961Z,47.73
2019-03-30T04:06:00.697Z,49.27
2019-03-30T04:08:55.811Z,52.83
2019-03-30T04:11:49.451Z,54.93
2019-03-30T04:14:49.727Z,45.57
2019-03-30T04:17:42.888Z,49.27
2019-03-30T04:20:35.319Z,51.17
2019-03-30T04:23:27.650Z,48.97
2019-03-30T04:26:19.844Z,46.67
2019-03-30T04:29:12.510Z,51.00
2019-03-30T04:32:06.121Z,49.23
2019-03-30T04:34:58.416Z,52.47
2019-03-30T04:37:50.822Z,50.20
2019-03-30T04:40:43.300Z,47.37
2019-03-30T04:43:35.640Z,47.83
2019-03-30T04:46:28.044Z,50.03
2019-03-30T04:49:20.385Z,46.07
2019-03-30T04:52:12.982Z,47.47
2019-03-30T04:55:05.277Z,53.30
2019-03-30T04:57:58.101Z,50.53
2019-03-30T05:00:50.523Z,48.03
2019-03-30T05:03:42.993Z,47.87
2019-03-30T05:06:35.597Z,51.93
2019-03-30T05:09:27.819Z,47.97
2019-03-30T05:12:19.957Z,47.63
2019-03-30T05:15:12.397Z,51.90
2019-03-30T05:18:04.777Z,51.50
2019-03-30T05:20:56.961Z,47.30
2019-03-30T05:23:49.121Z,41.67
2019-03-30T05:26:41.561Z,37.83
2019-03-30T05:29:34.682Z,39.87
2019-03-30T05:32:27.075Z,41.10
2019-03-30T05:35:19.215Z,39.27
2019-03-30T05:38:11.543Z,38.00
2019-03-30T05:41:04.086Z,47.03
2019-03-30T05:43:56.987Z,49.07
2019-03-30T05:46:49.190Z,47.87
2019-03-30T05:49:41.430Z,50.67
2019-03-30T05:52:35.620Z,50.77
2019-03-30T05:55:27.867Z,48.87
2019-03-30T05:58:20.336Z,49.53
2019-03-30T06:01:12.966Z,51.33
2019-03-30T06:04:05.477Z,50.70
2019-03-30T06:06:58.481Z,51.77
2019-03-30T06:09:51.343Z,54.70
2019-03-30T06:12:43.589Z,51.23
2019-03-30T06:15:36.489Z,47.57
2019-03-30T06:18:29.533Z,46.07
2019-03-30T06:21:22.457Z,44.67
2019-03-30T06:24:14.923Z,43.43
2019-03-30T06:27:07.062Z,43.30
2019-03-30T06:30:24.035Z,44.40
2019-03-30T06:33:16.487Z,44.37
2019-03-30T06:36:08.704Z,43.13
2019-03-30T06:39:01.133Z,42.43
2019-03-30T06:41:53.425Z,42.10
2019-03-30T06:44:46.524Z,40.67
2019-03-30T06:47:38.671Z,39.13
2019-03-30T06:50:31.568Z,39.10
2019-03-30T06:53:23.960Z,39.90
2019-03-30T06:56:16.346Z,37.93
2019-03-30T06:59:08.513Z,40.07
2019-03-30T07:02:00.779Z,39.20
2019-03-30T07:04:53.456Z,39.57
2019-03-30T07:07:48.236Z,40.43
2019-03-30T07:10:42.625Z,41.17
2019-03-30T07:13:38.014Z,41.97
2019-03-30T07:16:33.245Z,43.83
2019-03-30T07:19:28.621Z,41.63
2019-03-30T07:22:21.548Z,43.93
2019-03-30T07:25:13.910Z,46.10
2019-03-30T07:28:06.488Z,46.03
2019-03-30T07:30:58.718Z,47.87
2019-03-30T07:33:50.896Z,45.40
2019-03-30T07:36:43.022Z,46.70
2019-03-30T07:39:36.014Z,49.43
2019-03-30T07:42:28.997Z,47.67
2019-03-30T07:45:22.374Z,47.77
2019-03-30T07:48:14.894Z,46.27
2019-03-30T07:51:07.450Z,47.07
2019-03-30T07:53:59.754Z,47.77
2019-03-30T07:57:04.296Z,46.70
2019-03-30T07:59:46.311Z,48.53
2019-03-30T08:02:38.494Z,47.00
2019-03-30T08:05:30.908Z,46.13
2019-03-30T08:08:23.320Z,44.57
2019-03-30T08:11:16.355Z,46.80
2019-03-30T08:14:08.889Z,47.47
2019-03-30T08:17:01.345Z,45.83
2019-03-30T08:19:53.720Z,43.90
2019-03-30T08:22:46.582Z,46.17
2019-03-30T08:25:38.743Z,45.77
2019-03-30T08:28:31.650Z,43.50
2019-03-30T08:31:24.622Z,41.27
2019-03-30T08:34:16.997Z,41.70
2019-03-30T08:37:09.385Z,38.67
2019-03-30T08:40:01.754Z,36.43
2019-03-30T08:42:54.206Z,34.17
2019-03-30T08:45:49.054Z,30.47
2019-03-30T08:48:43.355Z,32.40
2019-03-30T08:51:35.520Z,29.47
2019-03-30T08:54:28.393Z,28.10
2019-03-30T08:57:20.971Z,27.17
2019-03-30T09:00:15.375Z,28.67
2019-03-30T09:03:07.341Z,28.57
2019-03-30T09:06:00.546Z,29.03
2019-03-30T09:08:52.935Z,26.30
2019-03-30T09:11:46.341Z,28.60
2019-03-30T09:14:38.856Z,24.77
2019-03-30T09:17:31.030Z,25.97
2019-03-30T09:20:23.975Z,25.23
2019-03-30T09:23:16.277Z,26.37
2019-03-30T09:26:09.643Z,24.73
2019-03-30T09:29:02.601Z,23.63
2019-03-30T09:31:55.076Z,23.03
2019-03-30T09:34:47.317Z,23.30
2019-03-30T09:37:39.752Z,22.53
2019-03-30T09:40:32.343Z,22.33
2019-03-30T09:43:24.867Z,22.30
2019-03-30T09:46:17.275Z,21.73
2019-03-30T09:49:09.473Z,20.83
2019-03-30T09:52:01.625Z,21.23
2019-03-30T09:54:54.089Z,22.67
2019-03-30T09:57:46.519Z,21.67
2019-03-30T10:00:38.638Z,20.40
2019-03-30T10:03:31.105Z,19.70
2019-03-30T10:06:33.849Z,20.30
2019-03-30T10:09:17.601Z,18.67
2019-03-30T10:12:10.173Z,19.33
2019-03-30T10:15:02.269Z,18.77
2019-03-30T10:17:54.717Z,18.23
2019-03-30T10:20:46.871Z,20.00
2019-03-30T10:23:38.933Z,20.27
2019-03-30T10:26:31.144Z,22.23
2019-03-30T10:29:23.943Z,21.07
2019-03-30T10:32:16.091Z,21.83
2019-03-30T10:35:09.833Z,23.13
2019-03-30T10:38:03.149Z,21.43
2019-03-30T10:40:55.675Z,18.63
2019-03-30T10:43:47.941Z,18.20
2019-03-30T10:46:40.384Z,18.23
2019-03-30T10:49:32.585Z,18.47
2019-03-30T10:52:26.457Z,17.97
2019-03-30T10:55:18.856Z,19.93
2019-03-30T10:58:11.294Z,18.93
2019-03-30T11:01:03.545Z,17.50
2019-03-30T11:03:55.721Z,18.17
2019-03-30T11:06:48.233Z,17.87
2019-03-30T11:09:41.273Z,18.27
2019-03-30T11:12:34.178Z,19.20
2019-03-30T11:15:26.257Z,19.17
2019-03-30T11:18:18.399Z,18.47
2019-03-30T11:21:10.809Z,20.60
2019-03-30T11:24:06.551Z,21.30
2019-03-30T11:26:56.730Z,20.23
2019-03-30T11:29:49.757Z,19.60
2019-03-30T11:32:42.376Z,20.00
2019-03-30T11:35:35.057Z,19.10
2019-03-30T11:38:27.417Z,19.13
2019-03-30T11:41:19.985Z,19.00
2019-03-30T11:44:12.432Z,19.43
2019-03-30T11:47:05.065Z,19.43
2019-03-30T11:49:57.764Z,19.00
2019-03-30T11:52:50.336Z,17.87
2019-03-30T11:55:42.741Z,17.37
2019-03-30T11:58:34.998Z,16.73
2019-03-30T12:01:27.305Z,17.60
2019-03-30T12:04:19.969Z,18.20
2019-03-30T12:07:12.287Z,17.70
2019-03-30T12:10:05.039Z,16.60
2019-03-30T12:12:57.250Z,18.70
2019-03-30T12:15:49.436Z,18.73
2019-03-30T12:18:41.594Z,18.40
2019-03-30T12:21:33.982Z,17.17
2019-03-30T12:24:26.120Z,17.00
2019-03-30T12:27:18.585Z,18.10
2019-03-30T12:30:11.652Z,17.03
2019-03-30T12:33:04.201Z,16.33
2019-03-30T12:35:57.039Z,16.40
2019-03-30T12:38:50.214Z,16.97
2019-03-30T12:41:42.546Z,16.33
2019-03-30T12:44:35.265Z,15.83
2019-03-30T12:47:27.577Z,16.63
2019-03-30T12:50:19.962Z,16.47
2019-03-30T12:53:12.490Z,17.17
2019-03-30T12:56:04.890Z,15.97
2019-03-30T12:58:57.282Z,16.10
2019-03-30T13:01:49.778Z,15.43
2019-03-30T13:04:42.046Z,16.00
2019-03-30T13:07:34.650Z,16.67
2019-03-30T13:10:27.569Z,15.20
2019-03-30T13:13:20.047Z,15.73
2019-03-30T13:16:12.454Z,15.67
2019-03-30T13:19:05.347Z,14.90
2019-03-30T13:21:57.856Z,15.77
2019-03-30T13:24:50.964Z,16.03
2019-03-30T13:27:43.425Z,14.23
2019-03-30T13:30:35.840Z,14.70
2019-03-30T13:33:28.001Z,14.83
2019-03-30T13:36:22.491Z,14.93
2019-03-30T13:39:14.607Z,14.27
2019-03-30T13:42:06.957Z,13.90
2019-03-30T13:45:03.403Z,13.87
2019-03-30T13:47:57.310Z,14.30
2019-03-30T13:50:49.747Z,14.33
2019-03-30T13:53:42.231Z,13.43
2019-03-30T13:56:34.591Z,12.83
2019-03-30T13:59:27.043Z,13.63
2019-03-30T14:02:19.454Z,13.93
2019-03-30T14:05:11.699Z,12.00
2019-03-30T14:08:04.081Z,13.30
2019-03-30T14:10:56.986Z,12.77
2019-03-30T14:13:49.563Z,12.57
2019-03-30T14:16:42.518Z,12.37
2019-03-30T14:19:34.649Z,12.40
2019-03-30T14:22:27.704Z,12.13
2019-03-30T14:25:19.946Z,12.43
2019-03-30T14:28:13.704Z,11.73
2019-03-30T14:31:06.373Z,12.10
2019-03-30T14:33:58.937Z,11.77
2019-03-30T14:36:51.477Z,13.07
2019-03-30T14:39:43.967Z,12.17
2019-03-30T14:42:36.873Z,12.80
2019-03-30T14:45:29.501Z,12.67
2019-03-30T14:48:21.807Z,12.37
2019-03-30T14:51:14.859Z,12.83
2019-03-30T14:54:07.684Z,12.70
2019-03-30T14:57:00.834Z,13.30
2019-03-30T14:59:53.350Z,13.23
2019-03-30T15:02:45.898Z,12.43
2019-03-30T15:05:38.045Z,12.50
2019-03-30T15:08:30.404Z,12.70
2019-03-30T15:11:22.768Z,13.90
2019-03-30T15:14:15.263Z,12.93
2019-03-30T15:17:08.216Z,12.10
2019-03-30T15:20:01.124Z,12.57
2019-03-30T15:22:53.403Z,17.40
2019-03-30T15:25:45.699Z,12.23
2019-03-30T15:28:38.331Z,11.67
2019-03-30T15:31:31.155Z,12.43
2019-03-30T15:34:23.514Z,11.60
2019-03-30T15:37:16.901Z,11.60
2019-03-30T15:40:11.008Z,10.80
2019-03-30T15:43:04.112Z,11.07
2019-03-30T15:45:56.696Z,10.97
2019-03-30T15:48:48.969Z,11.30
2019-03-30T15:51:41.499Z,12.30
2019-03-30T15:54:37.091Z,11.23
2019-03-30T15:57:28.257Z,11.93
2019-03-30T16:00:21.253Z,11.80
2019-03-30T16:03:13.693Z,12.77
2019-03-30T16:06:05.926Z,11.83
2019-03-30T16:08:58.185Z,11.90
2019-03-30T16:11:50.636Z,11.50
2019-03-30T16:14:43.172Z,12.03
2019-03-30T16:17:35.729Z,12.10
2019-03-30T16:20:28.775Z,11.07
2019-03-30T16:23:21.095Z,12.10
2019-03-30T16:26:13.641Z,11.93
2019-03-30T16:29:06.119Z,12.60
2019-03-30T16:31:58.347Z,11.20
2019-03-30T16:34:50.451Z,14.20
2019-03-30T16:37:42.676Z,13.97
2019-03-30T16:40:35.291Z,18.60
2019-03-30T16:43:27.528Z,19.13
2019-03-30T16:46:20.083Z,19.47
2019-03-30T16:49:13.322Z,20.43
2019-03-30T16:52:06.603Z,20.23
2019-03-30T16:54:59.283Z,21.70
2019-03-30T16:57:52.836Z,23.03
2019-03-30T17:00:56.257Z,22.73
2019-03-30T17:03:39.027Z,23.07
2019-03-30T17:06:31.630Z,21.70
2019-03-30T17:09:24.060Z,22.83
2019-03-30T17:12:16.518Z,23.07
2019-03-30T17:15:10.286Z,23.87
2019-03-30T17:18:02.857Z,24.07
2019-03-30T17:20:55.054Z,25.57
2019-03-30T17:23:47.358Z,25.40
2019-03-30T17:26:39.862Z,27.77
2019-03-30T17:29:32.077Z,27.53
2019-03-30T17:32:25.073Z,28.70
2019-03-30T17:35:17.242Z,30.07
2019-03-30T17:38:09.762Z,28.73
2019-03-30T17:41:02.486Z,30.00
2019-03-30T17:44:24.945Z,32.40
2019-03-30T17:47:17.444Z,35.70
2019-03-30T17:50:11.496Z,36.20
2019-03-30T17:53:05.120Z,35.90
2019-03-30T17:55:57.960Z,38.57
2019-03-30T17:58:52.230Z,38.00
2019-03-30T18:01:44.513Z,39.17
2019-03-30T18:04:38.971Z,37.03
2019-03-30T18:07:31.017Z,37.23
2019-03-30T18:10:24.167Z,36.87
2019-03-30T18:13:16.435Z,38.67
2019-03-30T18:16:09.169Z,35.23
2019-03-30T18:19:01.385Z,32.73
2019-03-30T18:21:54.365Z,33.87
2019-03-30T18:24:46.769Z,34.10
2019-03-30T18:27:39.247Z,34.33
2019-03-30T18:30:42.378Z,35.43
2019-03-30T18:33:35.121Z,35.40
2019-03-30T18:36:30.254Z,36.13
2019-03-30T18:39:22.951Z,36.87
2019-03-30T18:42:15.161Z,37.03
2019-03-30T18:45:09.371Z,37.47
2019-03-30T18:48:14.721Z,37.57
2019-03-30T18:51:07.176Z,39.70
2019-03-30T18:53:59.739Z,39.73
2019-03-30T18:56:52.128Z,39.70
2019-03-30T18:59:44.745Z,41.33
2019-03-30T19:02:37.274Z,41.37
2019-03-30T19:05:29.428Z,42.07
2019-03-30T19:08:22.825Z,41.23
2019-03-30T19:11:15.379Z,42.73
2019-03-30T19:14:08.251Z,43.07
2019-03-30T19:17:00.592Z,44.43
2019-03-30T19:19:53.193Z,43.83
2019-03-30T19:22:45.778Z,43.33
2019-03-30T19:25:38.319Z,42.53
2019-03-30T19:28:30.829Z,42.77
2019-03-30T19:31:23.111Z,42.73
2019-03-30T19:34:15.562Z,42.13
2019-03-30T19:37:08.587Z,42.67
2019-03-30T19:40:00.747Z,42.97
2019-03-30T19:42:52.981Z,41.47
2019-03-30T19:45:45.405Z,42.10
2019-03-30T19:48:37.880Z,43.20
2019-03-30T19:51:30.145Z,40.80
2019-03-30T19:54:22.457Z,42.57
2019-03-30T19:57:14.969Z,43.00
2019-03-30T20:00:08.953Z,40.07
2019-03-30T20:03:01.587Z,43.83
2019-03-30T20:05:54.028Z,42.13
2019-03-30T20:08:46.466Z,43.80
2019-03-30T20:11:38.691Z,43.23
2019-03-30T20:14:30.980Z,41.10
2019-03-30T20:17:23.636Z,42.83
2019-03-30T20:20:15.834Z,44.10
2019-03-30T20:23:08.585Z,44.90
2019-03-30T20:26:02.467Z,42.33
2019-03-30T20:28:55.670Z,42.10
2019-03-30T20:31:47.822Z,41.47
2019-03-30T20:34:40.278Z,41.60
2019-03-30T20:37:32.480Z,41.13
2019-03-30T20:40:24.689Z,41.27
2019-03-30T20:43:16.898Z,40.77
2019-03-30T20:46:09.377Z,41.73
2019-03-30T20:49:01.851Z,40.60
2019-03-30T20:51:54.371Z,42.60
2019-03-30T20:54:46.863Z,40.90
2019-03-30T20:57:39.863Z,42.67
2019-03-30T21:00:32.114Z,40.60
2019-03-30T21:03:24.599Z,40.40
2019-03-30T21:06:17.048Z,42.03
2019-03-30T21:09:10.161Z,42.10
2019-03-30T21:12:03.398Z,40.73
2019-03-30T21:14:55.784Z,41.77
2019-03-30T21:17:47.901Z,42.90
2019-03-30T21:20:40.435Z,39.97
2019-03-30T21:23:33.493Z,41.17
2019-03-30T21:26:28.624Z,40.73
2019-03-30T21:29:19.970Z,39.07
2019-03-30T21:32:12.092Z,39.30
2019-03-30T21:35:07.021Z,39.53
2019-03-30T21:37:59.512Z,39.30
2019-03-30T21:40:51.722Z,39.00
2019-03-30T21:43:44.218Z,37.13
2019-03-30T21:46:36.408Z,39.47
2019-03-30T21:49:31.000Z,40.03
2019-03-30T21:52:23.020Z,40.13
2019-03-30T21:55:15.627Z,40.53
2019-03-30T21:58:08.057Z,39.83
2019-03-30T22:01:01.635Z,39.03
2019-03-30T22:03:54.057Z,41.50
2019-03-30T22:06:46.518Z,39.63
2019-03-30T22:09:40.094Z,39.33
2019-03-30T22:12:33.342Z,37.50
2019-03-30T22:15:29.433Z,38.90
2019-03-30T22:18:21.652Z,38.93
2019-03-30T22:21:14.016Z,40.27
2019-03-30T22:24:06.533Z,41.40
2019-03-30T22:27:00.158Z,41.57
2019-03-30T22:29:53.031Z,40.17
2019-03-30T22:32:45.267Z,41.10
2019-03-30T22:35:37.475Z,39.97
2019-03-30T22:38:30.295Z,40.40
2019-03-30T22:41:22.698Z,40.13
2019-03-30T22:44:15.120Z,40.23
2019-03-30T22:47:07.685Z,40.73
2019-03-30T22:50:00.516Z,40.47
2019-03-30T22:52:52.982Z,40.50
2019-03-30T22:55:45.540Z,40.37
2019-03-30T22:58:38.085Z,42.10
2019-03-30T23:01:30.479Z,39.50
2019-03-30T23:04:22.712Z,40.47
2019-03-30T23:07:15.137Z,40.63
2019-03-30T23:10:08.017Z,39.50
2019-03-30T23:13:00.481Z,41.17
2019-03-30T23:15:52.872Z,38.77
2019-03-30T23:18:45.593Z,37.10
2019-03-30T23:21:38.428Z,37.20
2019-03-30T23:24:30.949Z,36.87
2019-03-30T23:27:23.300Z,39.90
2019-03-30T23:30:15.701Z,36.33
2019-03-30T23:33:07.885Z,37.27
2019-03-30T23:36:00.958Z,39.43
2019-03-30T23:38:53.387Z,39.37
2019-03-30T23:41:45.730Z,39.40
2019-03-30T23:44:37.971Z,38.23
2019-03-30T23:47:31.552Z,40.87
2019-03-30T23:50:23.660Z,39.53
2019-03-30T23:53:15.951Z,38.60
2019-03-30T23:56:27.196Z,39.97
2019-03-30T23:59:19.439Z,39.30
